sensor_id;sensor_type;location;lat;lon;timestamp;pressure;altitude;pressure_sealevel;temperature;humidity
59487;BME280;45298;54.918;73.504;2022-11-24T00:01:45;101887.88;;;-24.07;72.12
59487;BME280;45298;54.918;73.504;2022-11-24T00:04:14;101889.56;;;-23.98;71.99
59487;BME280;45298;54.918;73.504;2022-11-24T00:06:43;101876.22;;;-24.06;71.67
59487;BME280;45298;54.918;73.504;2022-11-24T00:09:12;101886.34;;;-23.97;72.00
59487;BME280;45298;54.918;73.504;2022-11-24T00:11:41;101866.03;;;-24.08;72.29
59487;BME280;45298;54.918;73.504;2022-11-24T00:14:10;101893.75;;;-23.90;71.98
59487;BME280;45298;54.918;73.504;2022-11-24T00:16:39;101897.88;;;-23.91;71.95
59487;BME280;45298;54.918;73.504;2022-11-24T00:19:08;101886.63;;;-23.94;71.91
59487;BME280;45298;54.918;73.504;2022-11-24T00:21:41;101931.00;;;-23.86;72.18
59487;BME280;45298;54.918;73.504;2022-11-24T00:24:10;101897.66;;;-23.85;72.18
59487;BME280;45298;54.918;73.504;2022-11-24T00:26:39;101894.22;;;-23.85;72.00
59487;BME280;45298;54.918;73.504;2022-11-24T00:29:10;101896.28;;;-23.90;72.04
59487;BME280;45298;54.918;73.504;2022-11-24T00:31:40;101884.84;;;-23.95;71.85
59487;BME280;45298;54.918;73.504;2022-11-24T00:34:11;101854.88;;;-24.02;72.10
59487;BME280;45298;54.918;73.504;2022-11-24T00:36:41;101844.66;;;-24.04;71.94
59487;BME280;45298;54.918;73.504;2022-11-24T00:39:12;101823.94;;;-24.10;72.13
59487;BME280;45298;54.918;73.504;2022-11-24T00:41:42;101871.09;;;-23.83;71.85
59487;BME280;45298;54.918;73.504;2022-11-24T00:44:11;101859.69;;;-23.88;72.06
59487;BME280;45298;54.918;73.504;2022-11-24T00:46:40;101873.50;;;-23.76;72.15
59487;BME280;45298;54.918;73.504;2022-11-24T00:49:09;101855.59;;;-23.79;72.11
59487;BME280;45298;54.918;73.504;2022-11-24T00:51:38;101810.59;;;-24.02;71.89
59487;BME280;45298;54.918;73.504;2022-11-24T00:54:07;101860.56;;;-23.71;72.21
59487;BME280;45298;54.918;73.504;2022-11-24T00:56:36;101823.50;;;-23.90;72.16
59487;BME280;45298;54.918;73.504;2022-11-24T00:59:04;101830.19;;;-23.82;72.10
59487;BME280;45298;54.918;73.504;2022-11-24T01:01:34;101857.47;;;-23.69;71.82
59487;BME280;45298;54.918;73.504;2022-11-24T01:04:03;101866.50;;;-23.62;72.12
59487;BME280;45298;54.918;73.504;2022-11-24T01:06:34;101826.41;;;-23.78;72.18
59487;BME280;45298;54.918;73.504;2022-11-24T01:09:03;101848.22;;;-23.61;72.24
59487;BME280;45298;54.918;73.504;2022-11-24T01:11:34;101839.16;;;-23.68;72.19
59487;BME280;45298;54.918;73.504;2022-11-24T01:14:22;101827.38;;;-23.85;72.02
59487;BME280;45298;54.918;73.504;2022-11-24T01:16:52;101855.38;;;-23.73;72.19
59487;BME280;45298;54.918;73.504;2022-11-24T01:19:22;101845.56;;;-23.79;71.91
59487;BME280;45298;54.918;73.504;2022-11-24T01:21:51;101807.06;;;-23.95;72.27
59487;BME280;45298;54.918;73.504;2022-11-24T01:24:20;101829.31;;;-23.82;72.05
59487;BME280;45298;54.918;73.504;2022-11-24T01:26:49;101840.78;;;-23.68;72.13
59487;BME280;45298;54.918;73.504;2022-11-24T01:29:18;101814.13;;;-23.84;72.34
59487;BME280;45298;54.918;73.504;2022-11-24T01:31:46;101805.09;;;-23.82;72.10
59487;BME280;45298;54.918;73.504;2022-11-24T01:34:15;101801.06;;;-23.89;72.04
59487;BME280;45298;54.918;73.504;2022-11-24T01:36:44;101734.09;;;-24.30;71.83
59487;BME280;45298;54.918;73.504;2022-11-24T01:39:15;101793.06;;;-23.93;71.99
59487;BME280;45298;54.918;73.504;2022-11-24T01:41:44;101811.88;;;-23.81;72.60
59487;BME280;45298;54.918;73.504;2022-11-24T01:44:25;101792.81;;;-23.88;72.30
59487;BME280;45298;54.918;73.504;2022-11-24T01:49:55;101796.63;;;-23.91;72.03
59487;BME280;45298;54.918;73.504;2022-11-24T01:55:07;101809.16;;;-23.91;72.21
59487;BME280;45298;54.918;73.504;2022-11-24T01:57:46;101791.41;;;-24.01;72.08
59487;BME280;45298;54.918;73.504;2022-11-24T02:00:17;101819.63;;;-23.95;72.05
59487;BME280;45298;54.918;73.504;2022-11-24T02:02:46;101798.78;;;-24.19;71.80
59487;BME280;45298;54.918;73.504;2022-11-24T02:05:16;101816.34;;;-24.03;71.86
59487;BME280;45298;54.918;73.504;2022-11-24T02:07:47;101801.78;;;-24.14;72.15
59487;BME280;45298;54.918;73.504;2022-11-24T02:10:16;101798.97;;;-24.17;72.32
59487;BME280;45298;54.918;73.504;2022-11-24T02:12:47;101714.47;;;-24.67;71.92
59487;BME280;45298;54.918;73.504;2022-11-24T02:15:17;101793.13;;;-24.25;72.02
59487;BME280;45298;54.918;73.504;2022-11-24T02:17:46;101806.00;;;-24.22;71.87
59487;BME280;45298;54.918;73.504;2022-11-24T02:20:17;101806.72;;;-24.23;72.46
59487;BME280;45298;54.918;73.504;2022-11-24T02:22:54;101823.56;;;-24.22;72.24
59487;BME280;45298;54.918;73.504;2022-11-24T02:25:38;101781.00;;;-24.45;71.98
59487;BME280;45298;54.918;73.504;2022-11-24T02:28:16;101714.00;;;-24.87;72.10
59487;BME280;45298;54.918;73.504;2022-11-24T02:30:46;101799.59;;;-24.43;71.90
59487;BME280;45298;54.918;73.504;2022-11-24T02:33:15;101784.00;;;-24.57;72.24
59487;BME280;45298;54.918;73.504;2022-11-24T02:35:46;101785.69;;;-24.65;72.01
59487;BME280;45298;54.918;73.504;2022-11-24T02:38:15;101781.94;;;-24.68;71.86
59487;BME280;45298;54.918;73.504;2022-11-24T02:40:47;101784.34;;;-24.70;72.12
59487;BME280;45298;54.918;73.504;2022-11-24T02:43:19;101811.00;;;-24.54;72.02
59487;BME280;45298;54.918;73.504;2022-11-24T02:45:49;101806.31;;;-24.51;72.55
59487;BME280;45298;54.918;73.504;2022-11-24T02:48:18;101780.81;;;-24.63;72.26
59487;BME280;45298;54.918;73.504;2022-11-24T02:50:46;101806.47;;;-24.50;72.48
59487;BME280;45298;54.918;73.504;2022-11-24T02:53:15;101811.97;;;-24.45;72.15
59487;BME280;45298;54.918;73.504;2022-11-24T02:55:44;101775.66;;;-24.65;72.27
59487;BME280;45298;54.918;73.504;2022-11-24T02:58:12;101776.28;;;-24.58;72.03
59487;BME280;45298;54.918;73.504;2022-11-24T03:00:42;101804.94;;;-24.40;72.41
59487;BME280;45298;54.918;73.504;2022-11-24T03:03:10;101789.41;;;-24.45;72.52
59487;BME280;45298;54.918;73.504;2022-11-24T03:05:39;101813.94;;;-24.26;72.29
59487;BME280;45298;54.918;73.504;2022-11-24T03:08:08;101810.84;;;-24.24;72.04
59487;BME280;45298;54.918;73.504;2022-11-24T03:10:36;101792.09;;;-24.27;72.27
59487;BME280;45298;54.918;73.504;2022-11-24T03:13:05;101758.50;;;-24.37;72.42
59487;BME280;45298;54.918;73.504;2022-11-24T03:15:34;101784.47;;;-24.20;72.07
59487;BME280;45298;54.918;73.504;2022-11-24T03:18:03;101785.84;;;-24.15;72.18
59487;BME280;45298;54.918;73.504;2022-11-24T03:20:32;101775.47;;;-24.18;72.07
59487;BME280;45298;54.918;73.504;2022-11-24T03:23:01;101797.19;;;-24.02;72.11
59487;BME280;45298;54.918;73.504;2022-11-24T03:25:29;101814.91;;;-23.92;72.26
59487;BME280;45298;54.918;73.504;2022-11-24T03:27:58;101796.91;;;-23.97;72.15
59487;BME280;45298;54.918;73.504;2022-11-24T03:30:27;101777.84;;;-24.04;71.71
59487;BME280;45298;54.918;73.504;2022-11-24T03:32:55;101782.75;;;-23.96;71.93
59487;BME280;45298;54.918;73.504;2022-11-24T03:35:24;101791.03;;;-23.89;71.89
59487;BME280;45298;54.918;73.504;2022-11-24T03:37:53;101823.94;;;-23.69;72.03
59487;BME280;45298;54.918;73.504;2022-11-24T03:40:21;101712.63;;;-24.20;71.79
59487;BME280;45298;54.918;73.504;2022-11-24T03:42:50;101782.66;;;-23.64;72.27
59487;BME280;45298;54.918;73.504;2022-11-24T03:45:19;101798.56;;;-23.48;71.97
59487;BME280;45298;54.918;73.504;2022-11-24T03:48:10;101763.50;;;-23.55;71.75
59487;BME280;45298;54.918;73.504;2022-11-24T03:50:39;101756.59;;;-23.49;71.73
59487;BME280;45298;54.918;73.504;2022-11-24T03:53:08;101734.88;;;-23.48;71.62
59487;BME280;45298;54.918;73.504;2022-11-24T03:55:36;101765.72;;;-23.16;71.94
59487;BME280;45298;54.918;73.504;2022-11-24T03:58:05;101728.63;;;-23.27;72.01
59487;BME280;45298;54.918;73.504;2022-11-24T04:00:34;101737.56;;;-23.04;71.70
59487;BME280;45298;54.918;73.504;2022-11-24T04:03:02;101737.72;;;-22.94;71.50
59487;BME280;45298;54.918;73.504;2022-11-24T04:05:31;101720.00;;;-22.87;71.54
59487;BME280;45298;54.918;73.504;2022-11-24T04:08:01;101738.38;;;-22.70;72.09
59487;BME280;45298;54.918;73.504;2022-11-24T04:10:32;101741.03;;;-22.60;71.44
59487;BME280;45298;54.918;73.504;2022-11-24T04:13:12;101753.78;;;-22.49;71.67
59487;BME280;45298;54.918;73.504;2022-11-24T04:15:42;101743.13;;;-22.47;71.50
59487;BME280;45298;54.918;73.504;2022-11-24T04:18:12;101770.66;;;-22.31;71.15
59487;BME280;45298;54.918;73.504;2022-11-24T04:20:42;101778.03;;;-22.24;71.14
59487;BME280;45298;54.918;73.504;2022-11-24T04:23:11;101720.06;;;-22.43;71.95
59487;BME280;45298;54.918;73.504;2022-11-24T04:25:39;101763.69;;;-22.07;71.83
59487;BME280;45298;54.918;73.504;2022-11-24T04:28:11;101706.56;;;-22.26;71.83
59487;BME280;45298;54.918;73.504;2022-11-24T04:30:39;101743.81;;;-21.95;72.04
59487;BME280;45298;54.918;73.504;2022-11-24T04:33:12;101748.13;;;-21.77;71.60
59487;BME280;45298;54.918;73.504;2022-11-24T04:35:43;101714.38;;;-21.87;72.06
59487;BME280;45298;54.918;73.504;2022-11-24T04:38:12;101714.91;;;-21.72;71.17
59487;BME280;45298;54.918;73.504;2022-11-24T04:41:02;101710.16;;;-21.61;71.21
59487;BME280;45298;54.918;73.504;2022-11-24T04:43:31;101731.69;;;-21.45;71.77
59487;BME280;45298;54.918;73.504;2022-11-24T04:46:09;101721.91;;;-21.42;71.32
59487;BME280;45298;54.918;73.504;2022-11-24T04:48:38;101727.81;;;-21.33;71.07
59487;BME280;45298;54.918;73.504;2022-11-24T04:51:07;101725.41;;;-21.22;71.26
59487;BME280;45298;54.918;73.504;2022-11-24T04:53:36;101647.63;;;-21.65;71.54
59487;BME280;45298;54.918;73.504;2022-11-24T04:56:05;101734.13;;;-21.10;71.08
59487;BME280;45298;54.918;73.504;2022-11-24T04:58:34;101723.88;;;-21.11;71.03
59487;BME280;45298;54.918;73.504;2022-11-24T05:01:06;101730.34;;;-21.05;71.84
59487;BME280;45298;54.918;73.504;2022-11-24T05:03:36;101717.94;;;-21.12;71.18
59487;BME280;45298;54.918;73.504;2022-11-24T05:06:05;101712.00;;;-21.13;71.95
59487;BME280;45298;54.918;73.504;2022-11-24T05:08:38;101693.94;;;-21.17;71.36
59487;BME280;45298;54.918;73.504;2022-11-24T05:11:07;101723.25;;;-21.00;71.65
59487;BME280;45298;54.918;73.504;2022-11-24T05:13:39;101708.41;;;-21.06;72.11
59487;BME280;45298;54.918;73.504;2022-11-24T05:16:08;101716.09;;;-20.95;72.22
59487;BME280;45298;54.918;73.504;2022-11-24T05:18:38;101695.50;;;-21.00;71.68
59487;BME280;45298;54.918;73.504;2022-11-24T05:21:07;101711.00;;;-20.87;71.48
59487;BME280;45298;54.918;73.504;2022-11-24T05:23:36;101717.09;;;-20.74;72.42
59487;BME280;45298;54.918;73.504;2022-11-24T05:26:05;101721.69;;;-20.70;72.65
59487;BME280;45298;54.918;73.504;2022-11-24T05:28:36;101699.34;;;-20.76;72.15
59487;BME280;45298;54.918;73.504;2022-11-24T05:31:05;101711.88;;;-20.67;72.28
59487;BME280;45298;54.918;73.504;2022-11-24T05:33:34;101666.75;;;-20.83;72.40
59487;BME280;45298;54.918;73.504;2022-11-24T05:36:05;101711.34;;;-20.54;72.08
59487;BME280;45298;54.918;73.504;2022-11-24T05:38:35;101704.06;;;-20.51;72.14
59487;BME280;45298;54.918;73.504;2022-11-24T05:41:04;101669.22;;;-20.55;72.73
59487;BME280;45298;54.918;73.504;2022-11-24T05:43:34;101671.59;;;-20.38;72.65
59487;BME280;45298;54.918;73.504;2022-11-24T05:46:03;101672.66;;;-20.25;72.59
59487;BME280;45298;54.918;73.504;2022-11-24T05:48:32;101668.44;;;-20.16;72.88
59487;BME280;45298;54.918;73.504;2022-11-24T05:51:01;101686.06;;;-19.97;73.05
59487;BME280;45298;54.918;73.504;2022-11-24T05:53:35;101662.84;;;-19.93;72.50
59487;BME280;45298;54.918;73.504;2022-11-24T05:56:04;101634.19;;;-19.93;72.22
59487;BME280;45298;54.918;73.504;2022-11-24T05:58:33;101654.44;;;-19.72;72.49
59487;BME280;45298;54.918;73.504;2022-11-24T06:01:05;101663.84;;;-19.51;72.75
59487;BME280;45298;54.918;73.504;2022-11-24T06:03:34;101655.09;;;-19.54;72.43
59487;BME280;45298;54.918;73.504;2022-11-24T06:06:03;101667.78;;;-19.44;72.62
59487;BME280;45298;54.918;73.504;2022-11-24T06:08:32;101677.91;;;-19.34;72.78
59487;BME280;45298;54.918;73.504;2022-11-24T06:11:01;101669.06;;;-19.28;72.80
59487;BME280;45298;54.918;73.504;2022-11-24T06:13:48;101650.63;;;-19.27;73.19
59487;BME280;45298;54.918;73.504;2022-11-24T06:16:17;101582.31;;;-19.58;73.05
59487;BME280;45298;54.918;73.504;2022-11-24T06:18:46;101664.91;;;-19.07;73.03
59487;BME280;45298;54.918;73.504;2022-11-24T06:21:15;101633.56;;;-19.20;72.90
59487;BME280;45298;54.918;73.504;2022-11-24T06:23:47;101636.34;;;-19.17;73.02
59487;BME280;45298;54.918;73.504;2022-11-24T06:26:16;101646.19;;;-19.09;72.70
59487;BME280;45298;54.918;73.504;2022-11-24T06:28:45;101642.66;;;-19.11;72.73
59487;BME280;45298;54.918;73.504;2022-11-24T06:31:14;101608.25;;;-19.30;72.85
59487;BME280;45298;54.918;73.504;2022-11-24T06:33:46;101615.72;;;-19.21;73.02
59487;BME280;45298;54.918;73.504;2022-11-24T06:36:18;101634.72;;;-19.06;73.37
59487;BME280;45298;54.918;73.504;2022-11-24T06:38:47;101606.75;;;-19.18;73.22
59487;BME280;45298;54.918;73.504;2022-11-24T06:41:16;101609.28;;;-19.07;72.94
59487;BME280;45298;54.918;73.504;2022-11-24T06:43:45;101614.47;;;-18.95;73.11
59487;BME280;45298;54.918;73.504;2022-11-24T06:46:15;101620.63;;;-18.92;72.94
59487;BME280;45298;54.918;73.504;2022-11-24T06:48:45;101625.31;;;-18.86;73.02
59487;BME280;45298;54.918;73.504;2022-11-24T06:51:17;101604.47;;;-18.94;73.08
59487;BME280;45298;54.918;73.504;2022-11-24T06:53:49;101540.00;;;-19.30;73.11
59487;BME280;45298;54.918;73.504;2022-11-24T06:56:18;101602.78;;;-18.93;73.23
59487;BME280;45298;54.918;73.504;2022-11-24T06:58:50;101601.53;;;-18.88;73.20
59487;BME280;45298;54.918;73.504;2022-11-24T07:01:24;101608.72;;;-18.82;72.83
59487;BME280;45298;54.918;73.504;2022-11-24T07:03:52;101625.28;;;-18.76;73.37
59487;BME280;45298;54.918;73.504;2022-11-24T07:06:23;101601.16;;;-18.82;73.28
59487;BME280;45298;54.918;73.504;2022-11-24T07:08:52;101598.13;;;-18.78;72.85
59487;BME280;45298;54.918;73.504;2022-11-24T07:11:22;101599.34;;;-18.63;73.45
59487;BME280;45298;54.918;73.504;2022-11-24T07:13:50;101595.91;;;-18.53;72.95
59487;BME280;45298;54.918;73.504;2022-11-24T07:16:27;101612.22;;;-18.39;73.14
59487;BME280;45298;54.918;73.504;2022-11-24T07:18:56;101591.94;;;-18.39;72.99
59487;BME280;45298;54.918;73.504;2022-11-24T07:21:26;101597.72;;;-18.30;73.38
59487;BME280;45298;54.918;73.504;2022-11-24T07:23:56;101556.38;;;-18.41;73.17
59487;BME280;45298;54.918;73.504;2022-11-24T07:26:25;101545.09;;;-18.34;73.04
59487;BME280;45298;54.918;73.504;2022-11-24T07:28:54;101546.56;;;-18.26;73.01
59487;BME280;45298;54.918;73.504;2022-11-24T07:31:23;101573.47;;;-18.05;72.98
59487;BME280;45298;54.918;73.504;2022-11-24T07:33:55;101571.72;;;-17.95;73.17
59487;BME280;45298;54.918;73.504;2022-11-24T07:36:25;101546.25;;;-17.96;73.32
59487;BME280;45298;54.918;73.504;2022-11-24T07:38:54;101564.94;;;-17.84;73.49
59487;BME280;45298;54.918;73.504;2022-11-24T07:41:25;101536.59;;;-17.90;72.84
59487;BME280;45298;54.918;73.504;2022-11-24T07:43:55;101548.25;;;-17.70;73.59
59487;BME280;45298;54.918;73.504;2022-11-24T07:46:24;101525.88;;;-17.75;73.81
59487;BME280;45298;54.918;73.504;2022-11-24T07:48:53;101525.09;;;-17.74;73.24
59487;BME280;45298;54.918;73.504;2022-11-24T07:51:22;101536.06;;;-17.64;72.98
59487;BME280;45298;54.918;73.504;2022-11-24T07:53:51;101543.75;;;-17.62;72.93
59487;BME280;45298;54.918;73.504;2022-11-24T07:56:20;101538.59;;;-17.64;73.10
59487;BME280;45298;54.918;73.504;2022-11-24T07:58:49;101543.03;;;-17.49;73.19
59487;BME280;45298;54.918;73.504;2022-11-24T08:01:20;101525.19;;;-17.51;73.31
59487;BME280;45298;54.918;73.504;2022-11-24T08:03:49;101534.38;;;-17.41;73.44
59487;BME280;45298;54.918;73.504;2022-11-24T08:06:18;101508.53;;;-17.47;73.42
59487;BME280;45298;54.918;73.504;2022-11-24T08:09:04;101499.84;;;-17.51;72.64
59487;BME280;45298;54.918;73.504;2022-11-24T08:11:34;101512.09;;;-17.45;72.62
59487;BME280;45298;54.918;73.504;2022-11-24T08:14:05;101512.53;;;-17.39;73.76
59487;BME280;45298;54.918;73.504;2022-11-24T08:16:34;101514.22;;;-17.27;73.18
59487;BME280;45298;54.918;73.504;2022-11-24T08:19:03;101422.50;;;-17.68;72.81
59487;BME280;45298;54.918;73.504;2022-11-24T08:21:32;101475.69;;;-17.34;73.69
59487;BME280;45298;54.918;73.504;2022-11-24T08:24:00;101423.97;;;-17.59;73.79
59487;BME280;45298;54.918;73.504;2022-11-24T08:26:29;101475.19;;;-17.18;73.68
59487;BME280;45298;54.918;73.504;2022-11-24T08:28:58;101500.34;;;-16.97;73.34
59487;BME280;45298;54.918;73.504;2022-11-24T08:31:27;101475.09;;;-17.07;72.72
59487;BME280;45298;54.918;73.504;2022-11-24T08:34:06;101478.81;;;-17.02;73.65
59487;BME280;45298;54.918;73.504;2022-11-24T08:36:34;101481.06;;;-16.95;72.97
59487;BME280;45298;54.918;73.504;2022-11-24T08:39:04;101474.75;;;-17.00;73.08
59487;BME280;45298;54.918;73.504;2022-11-24T08:41:33;101485.03;;;-16.98;73.08
59487;BME280;45298;54.918;73.504;2022-11-24T08:44:02;101477.03;;;-16.91;73.88
59487;BME280;45298;54.918;73.504;2022-11-24T08:46:31;101451.28;;;-16.97;72.85
59487;BME280;45298;54.918;73.504;2022-11-24T08:49:00;101475.72;;;-16.86;72.98
59487;BME280;45298;54.918;73.504;2022-11-24T08:51:29;101443.94;;;-16.93;73.00
59487;BME280;45298;54.918;73.504;2022-11-24T08:54:00;101447.25;;;-16.82;73.71
59487;BME280;45298;54.918;73.504;2022-11-24T08:56:31;101446.13;;;-16.74;72.91
59487;BME280;45298;54.918;73.504;2022-11-24T08:59:01;101428.03;;;-16.78;72.57
59487;BME280;45298;54.918;73.504;2022-11-24T09:01:29;101430.88;;;-16.74;73.90
59487;BME280;45298;54.918;73.504;2022-11-24T09:03:58;101448.31;;;-16.66;73.33
59487;BME280;45298;54.918;73.504;2022-11-24T09:06:28;101429.13;;;-16.75;72.59
59487;BME280;45298;54.918;73.504;2022-11-24T09:09:00;101421.97;;;-16.80;73.49
59487;BME280;45298;54.918;73.504;2022-11-24T09:11:29;101442.41;;;-16.79;73.15
59487;BME280;45298;54.918;73.504;2022-11-24T09:14:01;101363.25;;;-17.34;73.27
59487;BME280;45298;54.918;73.504;2022-11-24T09:16:30;101419.47;;;-17.04;73.43
59487;BME280;45298;54.918;73.504;2022-11-24T09:19:01;101400.31;;;-17.24;73.03
59487;BME280;45298;54.918;73.504;2022-11-24T09:21:32;101416.38;;;-17.12;73.99
59487;BME280;45298;54.918;73.504;2022-11-24T09:24:06;101409.53;;;-17.13;72.58
59487;BME280;45298;54.918;73.504;2022-11-24T09:26:37;101414.84;;;-17.22;73.66
59487;BME280;45298;54.918;73.504;2022-11-24T09:29:14;101420.13;;;-17.19;73.94
59487;BME280;45298;54.918;73.504;2022-11-24T09:31:43;101423.78;;;-17.15;72.58
59487;BME280;45298;54.918;73.504;2022-11-24T09:34:13;101390.06;;;-17.26;73.11
59487;BME280;45298;54.918;73.504;2022-11-24T09:36:43;101415.53;;;-17.24;73.20
59487;BME280;45298;54.918;73.504;2022-11-24T09:39:12;101334.34;;;-17.72;73.60
59487;BME280;45298;54.918;73.504;2022-11-24T09:41:57;101414.31;;;-17.18;73.73
59487;BME280;45298;54.918;73.504;2022-11-24T09:47:32;101403.94;;;-17.09;72.82
59487;BME280;45298;54.918;73.504;2022-11-24T09:50:22;101394.78;;;-17.07;74.24
59487;BME280;45298;54.918;73.504;2022-11-24T09:55:33;101395.53;;;-17.08;72.91
59487;BME280;45298;54.918;73.504;2022-11-24T09:58:11;101385.41;;;-17.20;73.15
59487;BME280;45298;54.918;73.504;2022-11-24T10:00:42;101352.44;;;-17.32;72.94
59487;BME280;45298;54.918;73.504;2022-11-24T10:03:40;101358.50;;;-17.29;73.30
59487;BME280;45298;54.918;73.504;2022-11-24T10:12:04;101355.38;;;-17.73;74.13
59487;BME280;45298;54.918;73.504;2022-11-24T10:20:04;101307.34;;;-17.95;74.40
59487;BME280;45298;54.918;73.504;2022-11-24T10:22:50;101247.50;;;-18.29;73.96
59487;BME280;45298;54.918;73.504;2022-11-24T10:25:56;101323.56;;;-17.81;73.84
59487;BME280;45298;54.918;73.504;2022-11-24T10:28:34;101316.19;;;-17.78;74.00
59487;BME280;45298;54.918;73.504;2022-11-24T10:31:37;101299.19;;;-17.91;74.72
59487;BME280;45298;54.918;73.504;2022-11-24T10:37:01;101318.78;;;-17.88;74.53
59487;BME280;45298;54.918;73.504;2022-11-24T10:42:17;101321.22;;;-17.90;74.17
59487;BME280;45298;54.918;73.504;2022-11-24T10:45:13;101225.28;;;-18.45;74.65
59487;BME280;45298;54.918;73.504;2022-11-24T10:47:43;101305.50;;;-17.98;74.29
59487;BME280;45298;54.918;73.504;2022-11-24T10:50:25;101308.34;;;-17.93;74.40
59487;BME280;45298;54.918;73.504;2022-11-24T10:56:03;101294.16;;;-18.03;75.04
59487;BME280;45298;54.918;73.504;2022-11-24T10:58:34;101293.69;;;-18.09;74.84
59487;BME280;45298;54.918;73.504;2022-11-24T11:03:50;101289.38;;;-18.10;74.71
59487;BME280;45298;54.918;73.504;2022-11-24T11:06:37;101203.66;;;-18.63;75.14
59487;BME280;45298;54.918;73.504;2022-11-24T11:11:37;101285.00;;;-18.13;74.85
59487;BME280;45298;54.918;73.504;2022-11-24T11:14:09;101226.59;;;-18.38;75.17
59487;BME280;45298;54.918;73.504;2022-11-24T11:16:43;101249.59;;;-18.23;75.37
59487;BME280;45298;54.918;73.504;2022-11-24T11:22:27;101238.50;;;-18.37;74.56
59487;BME280;45298;54.918;73.504;2022-11-24T11:27:40;101176.38;;;-18.67;74.99
59487;BME280;45298;54.918;73.504;2022-11-24T11:30:18;101259.09;;;-18.20;74.86
59487;BME280;45298;54.918;73.504;2022-11-24T11:33:21;101218.88;;;-18.40;75.13
59487;BME280;45298;54.918;73.504;2022-11-24T11:36:10;101233.06;;;-18.42;74.93
59487;BME280;45298;54.918;73.504;2022-11-24T11:38:42;101239.78;;;-18.42;75.16
59487;BME280;45298;54.918;73.504;2022-11-24T11:41:27;101233.75;;;-18.32;75.18
59487;BME280;45298;54.918;73.504;2022-11-24T11:47:39;101236.63;;;-18.28;75.42
59487;BME280;45298;54.918;73.504;2022-11-24T11:50:15;101197.28;;;-18.46;75.31
59487;BME280;45298;54.918;73.504;2022-11-24T11:56:05;101213.41;;;-18.34;75.54
59487;BME280;45298;54.918;73.504;2022-11-24T12:15:50;101184.34;;;-18.39;75.91
59487;BME280;45298;54.918;73.504;2022-11-24T12:18:41;101200.41;;;-18.27;75.22
59487;BME280;45298;54.918;73.504;2022-11-24T12:30:08;101172.00;;;-18.34;75.64
59487;BME280;45298;54.918;73.504;2022-11-24T12:39:33;101088.25;;;-18.73;76.23
59487;BME280;45298;54.918;73.504;2022-11-24T12:47:40;101181.38;;;-18.21;76.30
59487;BME280;45298;54.918;73.504;2022-11-24T12:50:16;101156.34;;;-18.29;75.82
59487;BME280;45298;54.918;73.504;2022-11-24T13:13:14;101141.16;;;-18.17;76.05
59487;BME280;45298;54.918;73.504;2022-11-24T13:18:52;101092.41;;;-18.38;76.25
59487;BME280;45298;54.918;73.504;2022-11-24T13:21:30;101135.00;;;-18.20;76.72
59487;BME280;45298;54.918;73.504;2022-11-24T13:24:21;101103.72;;;-18.33;76.96
59487;BME280;45298;54.918;73.504;2022-11-24T13:29:48;101125.31;;;-18.14;77.08
59487;BME280;45298;54.918;73.504;2022-11-24T13:35:15;101082.63;;;-18.33;77.13
59487;BME280;45298;54.918;73.504;2022-11-24T13:37:46;101120.25;;;-18.14;77.14
59487;BME280;45298;54.918;73.504;2022-11-24T14:01:32;101077.53;;;-18.21;77.72
59487;BME280;45298;54.918;73.504;2022-11-24T14:04:21;101070.28;;;-18.29;77.61
59487;BME280;45298;54.918;73.504;2022-11-24T14:07:12;101038.59;;;-18.47;77.90
59487;BME280;45298;54.918;73.504;2022-11-24T14:09:47;101068.28;;;-18.33;77.79
59487;BME280;45298;54.918;73.504;2022-11-24T14:12:22;101047.41;;;-18.42;77.04
59487;BME280;45298;54.918;73.504;2022-11-24T14:15:25;101066.66;;;-18.32;77.55
59487;BME280;45298;54.918;73.504;2022-11-24T14:18:00;101043.88;;;-18.44;77.68
59487;BME280;45298;54.918;73.504;2022-11-24T14:20:29;101025.53;;;-18.53;77.48
59487;BME280;45298;54.918;73.504;2022-11-24T14:22:58;101025.31;;;-18.57;77.62
59487;BME280;45298;54.918;73.504;2022-11-24T14:25:30;101038.59;;;-18.47;77.53
59487;BME280;45298;54.918;73.504;2022-11-24T14:27:59;101020.88;;;-18.47;77.83
59487;BME280;45298;54.918;73.504;2022-11-24T14:30:28;101021.66;;;-18.48;77.50
59487;BME280;45298;54.918;73.504;2022-11-24T14:33:02;101011.28;;;-18.51;77.50
59487;BME280;45298;54.918;73.504;2022-11-24T14:35:33;101037.72;;;-18.36;77.58
59487;BME280;45298;54.918;73.504;2022-11-24T14:38:04;101026.16;;;-18.44;77.74
59487;BME280;45298;54.918;73.504;2022-11-24T14:40:48;101013.28;;;-18.47;77.58
59487;BME280;45298;54.918;73.504;2022-11-24T14:48:27;101011.50;;;-18.36;77.75
59487;BME280;45298;54.918;73.504;2022-11-24T14:51:17;101009.50;;;-18.29;77.53
59487;BME280;45298;54.918;73.504;2022-11-24T14:53:54;101003.81;;;-18.38;77.91
59487;BME280;45298;54.918;73.504;2022-11-24T14:56:29;101002.91;;;-18.39;78.00
59487;BME280;45298;54.918;73.504;2022-11-24T14:58:59;101017.34;;;-18.37;77.51
59487;BME280;45298;54.918;73.504;2022-11-24T15:01:33;100999.06;;;-18.33;78.06
59487;BME280;45298;54.918;73.504;2022-11-24T15:04:21;100980.38;;;-18.47;77.33
59487;BME280;45298;54.918;73.504;2022-11-24T15:07:25;101000.28;;;-18.40;77.87
59487;BME280;45298;54.918;73.504;2022-11-24T15:10:00;100999.41;;;-18.41;77.75
59487;BME280;45298;54.918;73.504;2022-11-24T15:12:38;100997.75;;;-18.40;78.11
59487;BME280;45298;54.918;73.504;2022-11-24T15:17:51;100985.63;;;-18.32;77.92
59487;BME280;45298;54.918;73.504;2022-11-24T15:20:43;100986.50;;;-18.32;77.71
59487;BME280;45298;54.918;73.504;2022-11-24T15:23:29;100984.41;;;-18.26;77.56